sensor_id;sensor_type;location;lat;lon;timestamp;pressure;altitude;pressure_sealevel;temperature;humidity
25350;BME280;13302;48.796;11.978;2023-07-22T00:01:05;96790.72;;;17.80;35.38
25350;BME280;13302;48.796;11.978;2023-07-22T00:03:52;96793.13;;;17.78;35.78
25350;BME280;13302;48.796;11.978;2023-07-22T00:06:39;96790.31;;;17.74;35.47
25350;BME280;13302;48.796;11.978;2023-07-22T00:09:26;96795.13;;;17.74;35.72
25350;BME280;13302;48.796;11.978;2023-07-22T00:12:13;96785.94;;;17.73;35.50
25350;BME280;13302;48.796;11.978;2023-07-22T00:15:01;96791.13;;;17.71;35.61
25350;BME280;13302;48.796;11.978;2023-07-22T00:17:50;96799.91;;;17.70;35.76
25350;BME280;13302;48.796;11.978;2023-07-22T00:20:37;96799.91;;;17.70;35.90
25350;BME280;13302;48.796;11.978;2023-07-22T00:23:25;96794.75;;;17.68;35.60
25350;BME280;13302;48.796;11.978;2023-07-22T00:26:12;96797.13;;;17.66;35.92
25350;BME280;13302;48.796;11.978;2023-07-22T00:28:59;96798.72;;;17.64;36.15
25350;BME280;13302;48.796;11.978;2023-07-22T00:31:46;96791.13;;;17.64;35.93
25350;BME280;13302;48.796;11.978;2023-07-22T00:34:33;96789.53;;;17.63;35.92
25350;BME280;13302;48.796;11.978;2023-07-22T00:37:20;96787.13;;;17.62;35.73
25350;BME280;13302;48.796;11.978;2023-07-22T00:40:07;96784.75;;;17.60;36.06
25350;BME280;13302;48.796;11.978;2023-07-22T00:42:59;96783.16;;;17.59;36.04
25350;BME280;13302;48.796;11.978;2023-07-22T00:45:46;96786.34;;;17.58;35.94
25350;BME280;13302;48.796;11.978;2023-07-22T00:48:33;96788.75;;;17.56;35.89
25350;BME280;13302;48.796;11.978;2023-07-22T00:51:20;96783.53;;;17.54;36.05
25350;BME280;13302;48.796;11.978;2023-07-22T00:54:09;96781.13;;;17.53;36.10
25350;BME280;13302;48.796;11.978;2023-07-22T00:56:56;96780.75;;;17.51;35.90
25350;BME280;13302;48.796;11.978;2023-07-22T00:59:44;96775.53;;;17.49;35.88
25350;BME280;13302;48.796;11.978;2023-07-22T01:02:32;96768.78;;;17.47;36.32
25350;BME280;13302;48.796;11.978;2023-07-22T01:05:19;96763.56;;;17.45;36.31
25350;BME280;13302;48.796;11.978;2023-07-22T01:08:06;96762.75;;;17.41;36.26
25350;BME280;13302;48.796;11.978;2023-07-22T01:10:53;96765.56;;;17.41;36.33
25350;BME280;13302;48.796;11.978;2023-07-22T01:13:41;96766.38;;;17.38;36.01
25350;BME280;13302;48.796;11.978;2023-07-22T01:16:28;96760.38;;;17.36;36.17
25350;BME280;13302;48.796;11.978;2023-07-22T01:19:17;96760.38;;;17.32;36.44
25350;BME280;13302;48.796;11.978;2023-07-22T01:22:06;96764.38;;;17.31;36.46
25350;BME280;13302;48.796;11.978;2023-07-22T01:24:55;96758.78;;;17.28;36.35
25350;BME280;13302;48.796;11.978;2023-07-22T01:27:43;96756.75;;;17.25;36.38
25350;BME280;13302;48.796;11.978;2023-07-22T01:30:31;96759.56;;;17.25;36.30
25350;BME280;13302;48.796;11.978;2023-07-22T01:33:18;96751.97;;;17.22;36.37
25350;BME280;13302;48.796;11.978;2023-07-22T01:36:05;96754.34;;;17.20;36.68
25350;BME280;13302;48.796;11.978;2023-07-22T01:38:52;96751.19;;;17.18;36.74
25350;BME280;13302;48.796;11.978;2023-07-22T01:41:39;96756.34;;;17.16;36.47
25350;BME280;13302;48.796;11.978;2023-07-22T01:44:26;96757.56;;;17.15;36.58
25350;BME280;13302;48.796;11.978;2023-07-22T01:47:13;96744.75;;;17.14;36.85
25350;BME280;13302;48.796;11.978;2023-07-22T01:50:00;96750.72;;;17.12;36.72
25350;BME280;13302;48.796;11.978;2023-07-22T01:52:47;96758.31;;;17.12;36.61
25350;BME280;13302;48.796;11.978;2023-07-22T01:55:34;96758.72;;;17.10;36.47
25350;BME280;13302;48.796;11.978;2023-07-22T01:58:21;96757.50;;;17.08;36.69
25350;BME280;13302;48.796;11.978;2023-07-22T02:01:08;96765.88;;;17.08;36.84
25350;BME280;13302;48.796;11.978;2023-07-22T02:03:56;96772.28;;;17.05;36.94
25350;BME280;13302;48.796;11.978;2023-07-22T02:06:43;96775.88;;;17.05;36.99
25350;BME280;13302;48.796;11.978;2023-07-22T02:09:31;96781.84;;;17.04;36.99
25350;BME280;13302;48.796;11.978;2023-07-22T02:12:19;96781.84;;;17.04;36.86
25350;BME280;13302;48.796;11.978;2023-07-22T02:15:08;96781.06;;;17.03;37.00
25350;BME280;13302;48.796;11.978;2023-07-22T02:17:55;96781.84;;;17.00;37.04
25350;BME280;13302;48.796;11.978;2023-07-22T02:20:43;96777.84;;;17.01;36.99
25350;BME280;13302;48.796;11.978;2023-07-22T02:23:30;96775.44;;;16.99;36.90
25350;BME280;13302;48.796;11.978;2023-07-22T02:26:17;96781.81;;;16.96;36.73
25350;BME280;13302;48.796;11.978;2023-07-22T02:29:05;96781.03;;;16.96;36.89
25350;BME280;13302;48.796;11.978;2023-07-22T02:31:52;96786.22;;;16.94;36.76
25350;BME280;13302;48.796;11.978;2023-07-22T02:34:39;96777.44;;;16.92;36.67
25350;BME280;13302;48.796;11.978;2023-07-22T02:37:26;96780.63;;;16.90;37.02
25350;BME280;13302;48.796;11.978;2023-07-22T02:40:13;96786.59;;;16.85;37.01
25350;BME280;13302;48.796;11.978;2023-07-22T02:43:00;96783.38;;;16.80;36.84
25350;BME280;13302;48.796;11.978;2023-07-22T02:45:47;96777.78;;;16.80;36.72
25350;BME280;13302;48.796;11.978;2023-07-22T02:48:34;96777.41;;;16.78;37.16
25350;BME280;13302;48.796;11.978;2023-07-22T02:51:21;96784.97;;;16.77;37.22
25350;BME280;13302;48.796;11.978;2023-07-22T02:54:08;96777.78;;;16.76;36.82
25350;BME280;13302;48.796;11.978;2023-07-22T02:56:55;96789.34;;;16.75;37.28
25350;BME280;13302;48.796;11.978;2023-07-22T02:59:42;96790.53;;;16.74;37.25
25350;BME280;13302;48.796;11.978;2023-07-22T03:02:29;96790.94;;;16.72;36.83
25350;BME280;13302;48.796;11.978;2023-07-22T03:05:16;96794.91;;;16.71;36.91
25350;BME280;13302;48.796;11.978;2023-07-22T03:08:04;96796.50;;;16.69;37.03
25350;BME280;13302;48.796;11.978;2023-07-22T03:10:51;96796.50;;;16.65;36.92
25350;BME280;13302;48.796;11.978;2023-07-22T03:13:38;96792.47;;;16.63;36.89
25350;BME280;13302;48.796;11.978;2023-07-22T03:16:25;96794.06;;;16.60;36.88
25350;BME280;13302;48.796;11.978;2023-07-22T03:19:14;96800.03;;;16.59;36.86
25350;BME280;13302;48.796;11.978;2023-07-22T03:22:01;96801.63;;;16.56;37.17
25350;BME280;13302;48.796;11.978;2023-07-22T03:24:49;96802.00;;;16.54;37.16
25350;BME280;13302;48.796;11.978;2023-07-22T03:27:37;96802.00;;;16.51;37.38
25350;BME280;13302;48.796;11.978;2023-07-22T03:30:25;96805.59;;;16.51;37.44
25350;BME280;13302;48.796;11.978;2023-07-22T03:33:12;96812.75;;;16.49;37.64
25350;BME280;13302;48.796;11.978;2023-07-22T03:35:59;96813.94;;;16.48;37.71
25350;BME280;13302;48.796;11.978;2023-07-22T03:38:46;96820.72;;;16.50;37.40
25350;BME280;13302;48.796;11.978;2023-07-22T03:41:33;96802.78;;;16.48;37.56
25350;BME280;13302;48.796;11.978;2023-07-22T03:44:20;96811.16;;;16.48;37.29
25350;BME280;13302;48.796;11.978;2023-07-22T03:47:07;96816.34;;;16.49;37.34
25350;BME280;13302;48.796;11.978;2023-07-22T03:49:54;96819.16;;;16.49;37.67
25350;BME280;13302;48.796;11.978;2023-07-22T03:52:41;96818.34;;;16.49;37.41
25350;BME280;13302;48.796;11.978;2023-07-22T03:55:28;96823.13;;;16.48;37.70
25350;BME280;13302;48.796;11.978;2023-07-22T03:58:16;96828.69;;;16.48;37.80
25350;BME280;13302;48.796;11.978;2023-07-22T04:01:03;96819.53;;;16.48;37.45
25350;BME280;13302;48.796;11.978;2023-07-22T04:03:50;96831.88;;;16.47;37.77
25350;BME280;13302;48.796;11.978;2023-07-22T04:06:37;96827.09;;;16.47;37.70
25350;BME280;13302;48.796;11.978;2023-07-22T04:09:27;96829.88;;;16.47;37.76
25350;BME280;13302;48.796;11.978;2023-07-22T04:12:14;96827.53;;;16.49;37.71
25350;BME280;13302;48.796;11.978;2023-07-22T04:15:02;96816.75;;;16.48;37.71
25350;BME280;13302;48.796;11.978;2023-07-22T04:17:51;96819.91;;;16.50;37.70
25350;BME280;13302;48.796;11.978;2023-07-22T04:20:38;96830.31;;;16.53;37.71
25350;BME280;13302;48.796;11.978;2023-07-22T04:23:25;96826.31;;;16.54;37.73
25350;BME280;13302;48.796;11.978;2023-07-22T04:26:13;96821.97;;;16.57;37.48
25350;BME280;13302;48.796;11.978;2023-07-22T04:29:00;96818.75;;;16.58;37.61
25350;BME280;13302;48.796;11.978;2023-07-22T04:31:47;96821.19;;;16.60;37.48
25350;BME280;13302;48.796;11.978;2023-07-22T04:34:34;96821.97;;;16.60;37.75
25350;BME280;13302;48.796;11.978;2023-07-22T04:37:22;96820.78;;;16.61;37.83
25350;BME280;13302;48.796;11.978;2023-07-22T04:40:10;96833.16;;;16.64;37.57
25350;BME280;13302;48.796;11.978;2023-07-22T04:43:03;96828.38;;;16.64;37.90
25350;BME280;13302;48.796;11.978;2023-07-22T04:45:50;96831.97;;;16.65;37.91
25350;BME280;13302;48.796;11.978;2023-07-22T04:48:37;96831.19;;;16.68;37.60
25350;BME280;13302;48.796;11.978;2023-07-22T04:51:24;96827.22;;;16.69;37.57
25350;BME280;13302;48.796;11.978;2023-07-22T04:54:11;96829.63;;;16.70;37.63
25350;BME280;13302;48.796;11.978;2023-07-22T04:56:58;96833.22;;;16.74;37.75
25350;BME280;13302;48.796;11.978;2023-07-22T04:59:46;96841.19;;;16.76;37.53
25350;BME280;13302;48.796;11.978;2023-07-22T05:02:33;96840.38;;;16.79;37.90
25350;BME280;13302;48.796;11.978;2023-07-22T05:05:20;96847.19;;;16.81;37.89
25350;BME280;13302;48.796;11.978;2023-07-22T05:08:08;96851.63;;;16.86;37.48
25350;BME280;13302;48.796;11.978;2023-07-22T05:10:55;96850.00;;;16.88;37.77
25350;BME280;13302;48.796;11.978;2023-07-22T05:13:42;96842.06;;;16.90;37.34
25350;BME280;13302;48.796;11.978;2023-07-22T05:16:29;96840.03;;;16.91;37.48
25350;BME280;13302;48.796;11.978;2023-07-22T05:19:17;96844.06;;;16.93;37.75
25350;BME280;13302;48.796;11.978;2023-07-22T05:22:05;96846.84;;;16.97;37.59
25350;BME280;13302;48.796;11.978;2023-07-22T05:24:52;96848.47;;;16.98;37.75
25350;BME280;13302;48.796;11.978;2023-07-22T05:27:40;96845.69;;;17.02;37.81
25350;BME280;13302;48.796;11.978;2023-07-22T05:30:27;96844.09;;;17.04;37.52
25350;BME280;13302;48.796;11.978;2023-07-22T05:33:22;96842.09;;;17.05;37.67
25350;BME280;13302;48.796;11.978;2023-07-22T05:36:09;96840.53;;;17.07;37.51
25350;BME280;13302;48.796;11.978;2023-07-22T05:38:57;96842.91;;;17.09;37.83
25350;BME280;13302;48.796;11.978;2023-07-22T05:41:44;96853.28;;;17.12;37.70
25350;BME280;13302;48.796;11.978;2023-07-22T05:44:31;96852.91;;;17.13;37.75
25350;BME280;13302;48.796;11.978;2023-07-22T05:47:18;96856.13;;;17.15;37.98
25350;BME280;13302;48.796;11.978;2023-07-22T05:50:06;96862.13;;;17.21;38.00
25350;BME280;13302;48.796;11.978;2023-07-22T05:52:53;96868.94;;;17.23;37.95
25350;BME280;13302;48.796;11.978;2023-07-22T05:55:40;96860.13;;;17.25;37.77
25350;BME280;13302;48.796;11.978;2023-07-22T05:58:27;96863.34;;;17.27;37.75
25350;BME280;13302;48.796;11.978;2023-07-22T06:01:14;96877.31;;;17.30;37.68
25350;BME280;13302;48.796;11.978;2023-07-22T06:04:01;96882.13;;;17.33;37.67
25350;BME280;13302;48.796;11.978;2023-07-22T06:06:49;96882.53;;;17.35;37.59
25350;BME280;13302;48.796;11.978;2023-07-22T06:09:36;96876.16;;;17.38;37.65
25350;BME280;13302;48.796;11.978;2023-07-22T06:12:23;96879.34;;;17.40;37.64
25350;BME280;13302;48.796;11.978;2023-07-22T06:15:15;96888.94;;;17.43;37.78
25350;BME280;13302;48.796;11.978;2023-07-22T06:18:02;96878.94;;;17.45;37.37
25350;BME280;13302;48.796;11.978;2023-07-22T06:20:50;96889.34;;;17.49;37.47
25350;BME280;13302;48.796;11.978;2023-07-22T06:23:37;96884.97;;;17.51;37.82
25350;BME280;13302;48.796;11.978;2023-07-22T06:26:24;96884.97;;;17.55;37.51
25350;BME280;13302;48.796;11.978;2023-07-22T06:29:11;96889.38;;;17.59;37.49
25350;BME280;13302;48.796;11.978;2023-07-22T06:31:58;96888.19;;;17.64;37.59
25350;BME280;13302;48.796;11.978;2023-07-22T06:34:45;96882.59;;;17.67;37.57
25350;BME280;13302;48.796;11.978;2023-07-22T06:37:32;96877.81;;;17.71;37.60
25350;BME280;13302;48.796;11.978;2023-07-22T06:40:19;96885.38;;;17.78;37.53
25350;BME280;13302;48.796;11.978;2023-07-22T06:43:06;96881.81;;;17.81;37.64
25350;BME280;13302;48.796;11.978;2023-07-22T06:45:54;96876.22;;;17.84;37.64
25350;BME280;13302;48.796;11.978;2023-07-22T06:48:41;96886.63;;;17.87;37.89
25350;BME280;13302;48.796;11.978;2023-07-22T06:51:28;96891.84;;;17.93;37.67
25350;BME280;13302;48.796;11.978;2023-07-22T06:54:15;96889.44;;;17.95;37.87
25350;BME280;13302;48.796;11.978;2023-07-22T06:57:02;96887.03;;;17.97;38.01
25350;BME280;13302;48.796;11.978;2023-07-22T06:59:49;96893.44;;;18.01;37.90
25350;BME280;13302;48.796;11.978;2023-07-22T07:02:37;96885.03;;;18.04;37.50
25350;BME280;13302;48.796;11.978;2023-07-22T07:05:24;96885.03;;;18.08;37.57
25350;BME280;13302;48.796;11.978;2023-07-22T07:08:14;96886.66;;;18.12;37.50
25350;BME280;13302;48.796;11.978;2023-07-22T07:11:01;96884.63;;;18.16;37.32
25350;BME280;13302;48.796;11.978;2023-07-22T07:13:48;96887.03;;;18.21;37.53
25350;BME280;13302;48.796;11.978;2023-07-22T07:16:35;96892.25;;;18.26;37.32
25350;BME280;13302;48.796;11.978;2023-07-22T07:19:22;96893.81;;;18.31;37.27
25350;BME280;13302;48.796;11.978;2023-07-22T07:22:09;96890.22;;;18.34;37.10
25350;BME280;13302;48.796;11.978;2023-07-22T07:24:56;96897.44;;;18.39;37.01
25350;BME280;13302;48.796;11.978;2023-07-22T07:27:43;96890.59;;;18.43;37.26
25350;BME280;13302;48.796;11.978;2023-07-22T07:30:31;96889.81;;;18.46;37.42
25350;BME280;13302;48.796;11.978;2023-07-22T07:33:18;96892.59;;;18.50;37.02
25350;BME280;13302;48.796;11.978;2023-07-22T07:36:05;96897.84;;;18.55;36.94
25350;BME280;13302;48.796;11.978;2023-07-22T07:38:52;96891.41;;;18.58;36.85
25350;BME280;13302;48.796;11.978;2023-07-22T07:41:39;96897.81;;;18.62;36.90
25350;BME280;13302;48.796;11.978;2023-07-22T07:44:27;96900.59;;;18.65;37.43
25350;BME280;13302;48.796;11.978;2023-07-22T07:47:14;96898.59;;;18.69;36.98
25350;BME280;13302;48.796;11.978;2023-07-22T07:50:02;96908.97;;;18.72;37.09
25350;BME280;13302;48.796;11.978;2023-07-22T07:52:50;96908.97;;;18.76;36.73
25350;BME280;13302;48.796;11.978;2023-07-22T07:55:37;96910.97;;;18.79;36.96
25350;BME280;13302;48.796;11.978;2023-07-22T07:58:23;96900.94;;;18.81;36.57
25350;BME280;13302;48.796;11.978;2023-07-22T08:01:11;96898.56;;;18.84;36.46
25350;BME280;13302;48.796;11.978;2023-07-22T08:03:58;96904.53;;;18.86;36.24
25350;BME280;13302;48.796;11.978;2023-07-22T08:06:45;96909.31;;;18.89;36.44
25350;BME280;13302;48.796;11.978;2023-07-22T08:09:32;96912.53;;;18.91;36.25
25350;BME280;13302;48.796;11.978;2023-07-22T08:12:19;96905.72;;;18.95;36.16
25350;BME280;13302;48.796;11.978;2023-07-22T08:15:06;96912.13;;;18.96;35.70
25350;BME280;13302;48.796;11.978;2023-07-22T08:17:55;96912.50;;;18.98;35.96
25350;BME280;13302;48.796;11.978;2023-07-22T08:20:42;96914.47;;;19.01;35.68
25350;BME280;13302;48.796;11.978;2023-07-22T08:23:29;96915.69;;;19.03;35.38
25350;BME280;13302;48.796;11.978;2023-07-22T08:26:16;96911.28;;;19.06;35.41
25350;BME280;13302;48.796;11.978;2023-07-22T08:29:07;96906.06;;;19.08;35.31
25350;BME280;13302;48.796;11.978;2023-07-22T08:31:54;96908.06;;;19.11;35.00
25350;BME280;13302;48.796;11.978;2023-07-22T08:34:42;96904.44;;;19.14;35.21
25350;BME280;13302;48.796;11.978;2023-07-22T08:37:30;96907.22;;;19.17;35.19
25350;BME280;13302;48.796;11.978;2023-07-22T08:40:17;96908.47;;;19.20;34.91
25350;BME280;13302;48.796;11.978;2023-07-22T08:43:07;96904.03;;;19.22;35.10
25350;BME280;13302;48.796;11.978;2023-07-22T08:45:54;96914.41;;;19.25;35.10
25350;BME280;13302;48.796;11.978;2023-07-22T08:48:42;96902.41;;;19.29;35.08
25350;BME280;13302;48.796;11.978;2023-07-22T08:51:33;96900.41;;;19.33;35.25
25350;BME280;13302;48.796;11.978;2023-07-22T08:54:23;96897.16;;;19.34;35.09
25350;BME280;13302;48.796;11.978;2023-07-22T08:57:11;96902.75;;;19.38;34.79
25350;BME280;13302;48.796;11.978;2023-07-22T08:59:58;96897.16;;;19.41;34.66
25350;BME280;13302;48.796;11.978;2023-07-22T09:02:46;96901.94;;;19.44;34.49
25350;BME280;13302;48.796;11.978;2023-07-22T09:05:36;96906.72;;;19.47;34.43
25350;BME280;13302;48.796;11.978;2023-07-22T09:08:23;96893.88;;;19.50;34.18
25350;BME280;13302;48.796;11.978;2023-07-22T09:11:11;96907.91;;;19.53;33.93
25350;BME280;13302;48.796;11.978;2023-07-22T09:13:59;96890.25;;;19.56;33.83
25350;BME280;13302;48.796;11.978;2023-07-22T09:16:47;96901.84;;;19.58;33.66
25350;BME280;13302;48.796;11.978;2023-07-22T09:19:34;96888.59;;;19.62;33.51
25350;BME280;13302;48.796;11.978;2023-07-22T09:22:25;96891.38;;;19.62;33.16
25350;BME280;13302;48.796;11.978;2023-07-22T09:25:20;96887.78;;;19.65;32.93
25350;BME280;13302;48.796;11.978;2023-07-22T09:28:07;96893.78;;;19.67;32.96
25350;BME280;13302;48.796;11.978;2023-07-22T09:31:01;96896.19;;;19.69;32.44
25350;BME280;13302;48.796;11.978;2023-07-22T09:33:49;96902.56;;;19.73;32.84
25350;BME280;13302;48.796;11.978;2023-07-22T09:36:54;96899.31;;;19.74;32.29
25350;BME280;13302;48.796;11.978;2023-07-22T09:39:46;96889.69;;;19.79;32.38
25350;BME280;13302;48.796;11.978;2023-07-22T09:42:34;96897.69;;;19.84;32.72
25350;BME280;13302;48.796;11.978;2023-07-22T09:45:23;96886.44;;;19.88;32.63
25350;BME280;13302;48.796;11.978;2023-07-22T09:48:10;96888.03;;;19.92;32.00
25350;BME280;13302;48.796;11.978;2023-07-22T09:50:58;96890.38;;;19.97;31.70
25350;BME280;13302;48.796;11.978;2023-07-22T09:53:59;96893.19;;;19.97;31.11
25350;BME280;13302;48.796;11.978;2023-07-22T09:56:49;96889.56;;;20.00;31.06
25350;BME280;13302;48.796;11.978;2023-07-22T09:59:36;96885.16;;;20.03;31.38
25350;BME280;13302;48.796;11.978;2023-07-22T10:02:24;96887.13;;;20.06;31.72
25350;BME280;13302;48.796;11.978;2023-07-22T10:05:13;96897.91;;;20.07;31.24
25350;BME280;13302;48.796;11.978;2023-07-22T10:08:03;96887.50;;;20.08;30.97
25350;BME280;13302;48.796;11.978;2023-07-22T10:10:54;96887.09;;;20.09;31.07
25350;BME280;13302;48.796;11.978;2023-07-22T10:13:43;96873.03;;;20.13;30.72
25350;BME280;13302;48.796;11.978;2023-07-22T10:16:31;96875.44;;;20.14;30.59
25350;BME280;13302;48.796;11.978;2023-07-22T10:19:20;96869.38;;;20.16;29.98
25350;BME280;13302;48.796;11.978;2023-07-22T10:22:08;96867.34;;;20.20;29.90
25350;BME280;13302;48.796;11.978;2023-07-22T10:24:57;96863.72;;;20.23;30.00
25350;BME280;13302;48.796;11.978;2023-07-22T10:27:46;96863.69;;;20.27;29.94
25350;BME280;13302;48.796;11.978;2023-07-22T10:30:33;96863.25;;;20.28;29.67
25350;BME280;13302;48.796;11.978;2023-07-22T10:33:21;96854.44;;;20.30;29.61
25350;BME280;13302;48.796;11.978;2023-07-22T10:36:12;96865.63;;;20.33;29.56
25350;BME280;13302;48.796;11.978;2023-07-22T10:38:59;96855.19;;;20.34;29.27
25350;BME280;13302;48.796;11.978;2023-07-22T10:41:50;96850.34;;;20.38;29.82
25350;BME280;13302;48.796;11.978;2023-07-22T10:44:38;96851.50;;;20.40;29.41
25350;BME280;13302;48.796;11.978;2023-07-22T10:47:33;96846.28;;;20.42;28.80
25350;BME280;13302;48.796;11.978;2023-07-22T10:50:20;96845.44;;;20.45;29.13
25350;BME280;13302;48.796;11.978;2023-07-22T10:53:12;96843.06;;;20.47;28.92
25350;BME280;13302;48.796;11.978;2023-07-22T10:58:59;96830.53;;;20.55;29.31
25350;BME280;13302;48.796;11.978;2023-07-22T11:01:47;96822.88;;;20.59;28.74
25350;BME280;13302;48.796;11.978;2023-07-22T11:04:34;96831.25;;;20.63;28.90
25350;BME280;13302;48.796;11.978;2023-07-22T11:07:44;96829.19;;;20.67;28.36
25350;BME280;13302;48.796;11.978;2023-07-22T11:10:34;96831.16;;;20.70;28.54
25350;BME280;13302;48.796;11.978;2023-07-22T11:13:28;96808.63;;;20.74;28.20
25350;BME280;13302;48.796;11.978;2023-07-22T11:16:17;96809.81;;;20.76;28.68
25350;BME280;13302;48.796;11.978;2023-07-22T11:19:05;96807.38;;;20.78;28.47
25350;BME280;13302;48.796;11.978;2023-07-22T11:21:54;96810.13;;;20.82;28.42
25350;BME280;13302;48.796;11.978;2023-07-22T11:24:41;96816.50;;;20.86;28.18
25350;BME280;13302;48.796;11.978;2023-07-22T11:27:28;96806.88;;;20.87;27.70
25350;BME280;13302;48.796;11.978;2023-07-22T11:30:15;96806.88;;;20.87;27.95
25350;BME280;13302;48.796;11.978;2023-07-22T11:33:02;96806.88;;;20.87;27.56
25350;BME280;13302;48.796;11.978;2023-07-22T11:35:49;96799.25;;;20.87;27.91
25350;BME280;13302;48.796;11.978;2023-07-22T11:38:36;96805.25;;;20.89;28.00
25350;BME280;13302;48.796;11.978;2023-07-22T11:41:24;96804.00;;;20.90;27.81
25350;BME280;13302;48.796;11.978;2023-07-22T11:44:13;96803.59;;;20.92;27.59
25350;BME280;13302;48.796;11.978;2023-07-22T11:47:02;96804.41;;;20.92;27.56
25350;BME280;13302;48.796;11.978;2023-07-22T11:49:50;96797.56;;;20.93;27.50
25350;BME280;13302;48.796;11.978;2023-07-22T11:52:38;96790.31;;;20.96;27.66
25350;BME280;13302;48.796;11.978;2023-07-22T11:55:25;96778.22;;;20.99;27.93
25350;BME280;13302;48.796;11.978;2023-07-22T11:58:25;96782.22;;;21.01;28.33
25350;BME280;13302;48.796;11.978;2023-07-22T12:01:13;96782.50;;;21.07;27.93
25350;BME280;13302;48.796;11.978;2023-07-22T12:04:10;96780.94;;;21.10;27.66
25350;BME280;13302;48.796;11.978;2023-07-22T12:06:57;96778.06;;;21.13;27.74
25350;BME280;13302;48.796;11.978;2023-07-22T12:09:48;96778.41;;;21.15;27.98
25350;BME280;13302;48.796;11.978;2023-07-22T12:12:37;96770.72;;;21.19;27.57
25350;BME280;13302;48.796;11.978;2023-07-22T12:15:25;96771.91;;;21.22;27.36
25350;BME280;13302;48.796;11.978;2023-07-22T12:18:12;96773.88;;;21.25;27.50
25350;BME280;13302;48.796;11.978;2023-07-22T12:21:03;96762.97;;;21.27;27.15
25350;BME280;13302;48.796;11.978;2023-07-22T12:23:50;96760.13;;;21.30;27.04
25350;BME280;13302;48.796;11.978;2023-07-22T12:26:39;96754.47;;;21.34;27.36
25350;BME280;13302;48.796;11.978;2023-07-22T12:29:26;96756.41;;;21.37;26.84
25350;BME280;13302;48.796;11.978;2023-07-22T12:32:13;96753.19;;;21.38;26.73
25350;BME280;13302;48.796;11.978;2023-07-22T12:35:01;96748.72;;;21.41;26.67
25350;BME280;13302;48.796;11.978;2023-07-22T12:37:49;96751.13;;;21.42;26.58
25350;BME280;13302;48.796;11.978;2023-07-22T12:40:37;96744.63;;;21.45;26.83
25350;BME280;13302;48.796;11.978;2023-07-22T12:43:24;96742.16;;;21.47;26.50
25350;BME280;13302;48.796;11.978;2023-07-22T12:46:11;96738.16;;;21.48;26.54
25350;BME280;13302;48.796;11.978;2023-07-22T12:48:59;96739.31;;;21.51;26.33
25350;BME280;13302;48.796;11.978;2023-07-22T12:51:46;96740.91;;;21.52;26.35
25350;BME280;13302;48.796;11.978;2023-07-22T12:54:33;96737.66;;;21.53;26.20
25350;BME280;13302;48.796;11.978;2023-07-22T12:57:20;96736.44;;;21.54;26.23
25350;BME280;13302;48.796;11.978;2023-07-22T13:00:08;96723.19;;;21.55;25.96
25350;BME280;13302;48.796;11.978;2023-07-22T13:02:57;96722.75;;;21.57;25.94
25350;BME280;13302;48.796;11.978;2023-07-22T13:05:45;96725.56;;;21.57;26.11
25350;BME280;13302;48.796;11.978;2023-07-22T13:08:35;96718.72;;;21.58;25.90
25350;BME280;13302;48.796;11.978;2023-07-22T13:11:23;96724.75;;;21.56;25.62
25350;BME280;13302;48.796;11.978;2023-07-22T13:14:10;96716.69;;;21.58;25.68
25350;BME280;13302;48.796;11.978;2023-07-22T13:16:57;96714.69;;;21.59;25.93
25350;BME280;13302;48.796;11.978;2023-07-22T13:19:44;96702.63;;;21.58;25.57
25350;BME280;13302;48.796;11.978;2023-07-22T13:22:31;96707.81;;;21.60;25.44
25350;BME280;13302;48.796;11.978;2023-07-22T13:25:18;96707.41;;;21.61;25.71
25350;BME280;13302;48.796;11.978;2023-07-22T13:28:05;96716.22;;;21.63;25.95
25350;BME280;13302;48.796;11.978;2023-07-22T13:30:52;96708.13;;;21.65;25.64
25350;BME280;13302;48.796;11.978;2023-07-22T13:33:39;96711.31;;;21.67;25.81
25350;BME280;13302;48.796;11.978;2023-07-22T13:36:26;96714.13;;;21.67;25.53
25350;BME280;13302;48.796;11.978;2023-07-22T13:39:13;96714.53;;;21.69;25.23
25350;BME280;13302;48.796;11.978;2023-07-22T13:42:00;96706.88;;;21.70;25.21
25350;BME280;13302;48.796;11.978;2023-07-22T13:44:48;96712.50;;;21.70;25.11
25350;BME280;13302;48.796;11.978;2023-07-22T13:47:35;96712.09;;;21.71;25.19
25350;BME280;13302;48.796;11.978;2023-07-22T13:50:22;96712.84;;;21.72;25.26
25350;BME280;13302;48.796;11.978;2023-07-22T13:53:09;96706.00;;;21.73;25.06
25350;BME280;13302;48.796;11.978;2023-07-22T13:55:56;96712.81;;;21.75;25.36
25350;BME280;13302;48.796;11.978;2023-07-22T13:58:43;96703.13;;;21.76;25.33
25350;BME280;13302;48.796;11.978;2023-07-22T14:01:31;96696.72;;;21.76;25.16
25350;BME280;13302;48.796;11.978;2023-07-22T14:04:18;96687.03;;;21.77;25.41
25350;BME280;13302;48.796;11.978;2023-07-22T14:07:05;96690.66;;;21.77;25.63
25350;BME280;13302;48.796;11.978;2023-07-22T14:09:52;96686.22;;;21.80;25.68
25350;BME280;13302;48.796;11.978;2023-07-22T14:12:40;96683.75;;;21.82;25.34
25350;BME280;13302;48.796;11.978;2023-07-22T14:15:28;96696.59;;;21.83;25.51
25350;BME280;13302;48.796;11.978;2023-07-22T14:18:15;96695.38;;;21.84;25.39
25350;BME280;13302;48.796;11.978;2023-07-22T14:21:04;96692.13;;;21.85;25.08
25350;BME280;13302;48.796;11.978;2023-07-22T14:23:51;96689.75;;;21.84;24.98
25350;BME280;13302;48.796;11.978;2023-07-22T14:26:38;96694.13;;;21.85;25.05
25350;BME280;13302;48.796;11.978;2023-07-22T14:29:25;96680.06;;;21.85;24.77
25350;BME280;13302;48.796;11.978;2023-07-22T14:32:12;96686.06;;;21.87;24.99
25350;BME280;13302;48.796;11.978;2023-07-22T14:35:03;96676.41;;;21.88;24.79
25350;BME280;13302;48.796;11.978;2023-07-22T14:37:51;96681.59;;;21.89;24.38
25350;BME280;13302;48.796;11.978;2023-07-22T14:40:38;96690.41;;;21.91;24.41